createdAt,value
2022-08-19T00:00:53.073Z,3.70
2022-08-19T00:03:19.023Z,4.20
2022-08-19T00:05:51.810Z,4.20
2022-08-19T00:08:01.813Z,3.90
2022-08-19T00:10:42.749Z,3.90
2022-08-19T00:13:18.870Z,4.00
2022-08-19T00:15:32.757Z,4.90
2022-08-19T00:17:48.320Z,4.90
2022-08-19T00:20:15.605Z,5.10
2022-08-19T00:22:43.766Z,4.60
2022-08-19T00:25:00.101Z,5.20
2022-08-19T00:27:26.111Z,4.10
2022-08-19T00:29:36.740Z,4.50
2022-08-19T00:31:58.861Z,5.50
2022-08-19T00:34:15.570Z,4.80
2022-08-19T00:36:22.429Z,4.40
2022-08-19T00:38:45.477Z,5.10
2022-08-19T00:40:56.247Z,5.00
2022-08-19T00:43:15.358Z,4.90
2022-08-19T00:45:24.780Z,4.40
2022-08-19T00:47:31.212Z,4.80
2022-08-19T00:49:42.843Z,4.90
2022-08-19T00:52:09.301Z,4.40
2022-08-19T00:54:26.221Z,4.20
2022-08-19T00:56:52.500Z,4.90
2022-08-19T00:59:11.484Z,5.70
2022-08-19T01:01:18.531Z,4.50
2022-08-19T01:03:56.555Z,4.20
2022-08-19T01:06:09.123Z,4.60
2022-08-19T01:08:18.656Z,4.80
2022-08-19T01:10:34.740Z,4.70
2022-08-19T01:15:55.138Z,5.00
2022-08-19T01:18:37.501Z,5.00
2022-08-19T01:21:16.484Z,5.10
2022-08-19T01:24:05.853Z,4.60
2022-08-19T01:27:05.005Z,4.60
2022-08-19T01:30:03.964Z,4.60
2022-08-19T01:32:33.403Z,4.40
2022-08-19T01:35:41.183Z,4.80
2022-08-19T01:38:07.258Z,4.30
2022-08-19T01:40:37.551Z,4.40
2022-08-19T01:43:37.257Z,4.90
2022-08-19T01:46:24.538Z,4.50
2022-08-19T01:48:58.838Z,4.90
2022-08-19T01:51:40.550Z,4.80
2022-08-19T01:54:04.550Z,4.70
2022-08-19T01:56:36.260Z,4.60
2022-08-19T01:58:59.095Z,4.40
2022-08-19T02:01:22.474Z,4.30
2022-08-19T02:03:53.298Z,4.70
2022-08-19T02:06:19.097Z,5.00
2022-08-19T02:08:58.005Z,5.00
2022-08-19T02:11:59.837Z,4.80
2022-08-19T02:14:19.556Z,4.60
2022-08-19T02:16:40.477Z,5.40
2022-08-19T02:18:54.806Z,4.40
2022-08-19T02:21:18.250Z,4.60
2022-08-19T02:23:42.864Z,4.40
2022-08-19T02:26:14.845Z,4.90
2022-08-19T02:28:28.843Z,4.50
2022-08-19T02:31:09.951Z,4.20
2022-08-19T02:33:35.862Z,4.90
2022-08-19T02:36:11.598Z,5.20
2022-08-19T02:39:15.650Z,5.30
2022-08-19T02:41:53.055Z,5.00
2022-08-19T02:44:26.558Z,5.00
2022-08-19T02:47:22.526Z,4.40
2022-08-19T02:49:38.045Z,4.20
2022-08-19T02:51:47.953Z,4.40
2022-08-19T02:54:38.482Z,5.10
2022-08-19T02:57:29.257Z,4.20
2022-08-19T03:00:17.989Z,5.00
2022-08-19T03:05:20.337Z,4.10
2022-08-19T03:08:17.961Z,4.20
2022-08-19T03:10:56.058Z,4.30
2022-08-19T03:13:22.233Z,4.30
2022-08-19T03:15:50.701Z,4.30
2022-08-19T03:18:15.401Z,4.40
2022-08-19T03:20:37.510Z,4.80
2022-08-19T03:23:46.414Z,4.20
2022-08-19T03:28:36.222Z,4.60
2022-08-19T03:31:41.578Z,4.70
2022-08-19T03:33:52.068Z,4.30
2022-08-19T03:36:25.843Z,5.40
2022-08-19T03:38:48.376Z,4.70
2022-08-19T03:41:16.817Z,4.90
2022-08-19T03:43:30.384Z,5.30
2022-08-19T03:45:53.315Z,5.10
2022-08-19T03:48:28.476Z,4.70
2022-08-19T03:53:35.588Z,5.10
2022-08-19T03:56:24.078Z,5.40
2022-08-19T03:58:54.111Z,4.70
2022-08-19T04:01:35.234Z,5.10
2022-08-19T04:04:05.066Z,4.80
2022-08-19T04:06:47.096Z,5.30
2022-08-19T04:09:45.874Z,4.80
2022-08-19T04:12:55.370Z,4.40
2022-08-19T04:15:57.148Z,4.30
2022-08-19T04:18:55.089Z,4.80
2022-08-19T04:21:32.915Z,5.30
2022-08-19T04:24:16.570Z,5.00
2022-08-19T04:26:46.728Z,5.00
2022-08-19T04:28:53.875Z,4.00
2022-08-19T04:31:04.327Z,4.90
2022-08-19T04:33:15.272Z,4.50
2022-08-19T04:35:30.827Z,5.10
2022-08-19T04:37:44.615Z,5.10
2022-08-19T04:40:09.405Z,5.10
2022-08-19T04:42:42.123Z,5.10
2022-08-19T04:47:01.666Z,5.60
2022-08-19T04:49:22.944Z,5.30
2022-08-19T04:51:52.452Z,5.00
2022-08-19T04:53:59.629Z,6.00
2022-08-19T04:56:30.178Z,5.20
2022-08-19T04:58:37.682Z,5.70
2022-08-19T05:00:44.567Z,5.30
2022-08-19T05:02:54.688Z,5.50
2022-08-19T05:05:05.650Z,5.50
2022-08-19T05:07:16.589Z,5.10
2022-08-19T05:09:24.120Z,5.10
2022-08-19T05:11:40.028Z,5.70
2022-08-19T05:13:51.084Z,5.30
2022-08-19T05:16:02.651Z,5.30
2022-08-19T05:18:28.368Z,4.90
2022-08-19T05:21:26.412Z,4.70
2022-08-19T05:23:34.042Z,4.90
2022-08-19T05:25:54.079Z,5.30
2022-08-19T05:28:00.888Z,5.00
2022-08-19T05:30:33.420Z,5.10
2022-08-19T05:32:42.517Z,4.50
2022-08-19T05:35:04.539Z,4.90
2022-08-19T05:37:25.656Z,4.30
2022-08-19T05:39:51.280Z,4.60
2022-08-19T05:42:04.379Z,5.60
2022-08-19T05:44:12.362Z,5.10
2022-08-19T05:46:28.094Z,4.90
2022-08-19T05:48:45.470Z,5.60
2022-08-19T05:50:55.660Z,5.50
2022-08-19T05:53:02.612Z,5.20
2022-08-19T05:55:13.647Z,5.50
2022-08-19T05:57:23.824Z,5.10
2022-08-19T05:59:30.819Z,5.10
2022-08-19T06:01:48.816Z,5.10
2022-08-19T06:03:55.985Z,5.50
2022-08-19T06:06:08.010Z,5.40
2022-08-19T06:08:14.612Z,4.90
2022-08-19T06:10:41.500Z,6.20
2022-08-19T06:12:48.222Z,4.60
2022-08-19T06:15:01.239Z,5.60
2022-08-19T06:17:18.378Z,5.50
2022-08-19T06:19:40.880Z,4.40
2022-08-19T06:21:50.284Z,5.10
2022-08-19T06:23:59.341Z,4.80
2022-08-19T06:26:18.001Z,4.90
2022-08-19T06:28:25.773Z,4.90
2022-08-19T06:30:41.760Z,5.40
2022-08-19T06:32:56.233Z,4.90
2022-08-19T06:35:06.990Z,4.80
2022-08-19T06:37:20.818Z,5.40
2022-08-19T06:39:32.711Z,5.40
2022-08-19T06:41:47.599Z,5.30
2022-08-19T06:44:09.213Z,5.40
2022-08-19T06:46:27.942Z,5.50
2022-08-19T06:48:39.053Z,6.10
2022-08-19T06:51:01.205Z,6.10
2022-08-19T06:53:11.830Z,5.90
2022-08-19T06:55:35.090Z,6.00
2022-08-19T06:57:50.373Z,5.50
2022-08-19T06:59:58.453Z,6.00
2022-08-19T07:02:08.600Z,5.30
2022-08-19T07:04:30.862Z,6.10
2022-08-19T07:06:44.437Z,6.10
2022-08-19T07:09:02.075Z,5.70
2022-08-19T07:11:35.217Z,5.30
2022-08-19T07:13:45.290Z,5.90
2022-08-19T07:15:52.411Z,6.30
2022-08-19T07:17:58.766Z,6.00
2022-08-19T07:20:10.311Z,5.50
2022-08-19T07:22:19.997Z,5.40
2022-08-19T07:24:34.761Z,5.20
2022-08-19T07:26:45.967Z,5.90
2022-08-19T07:28:53.110Z,5.50
2022-08-19T07:31:09.995Z,5.80
2022-08-19T07:33:18.658Z,5.20
2022-08-19T07:35:25.854Z,5.40
2022-08-19T07:37:37.855Z,5.60
2022-08-19T07:39:44.629Z,5.30
2022-08-19T07:41:55.993Z,5.70
2022-08-19T07:44:30.989Z,4.90
2022-08-19T07:46:40.544Z,4.90
2022-08-19T07:48:48.763Z,5.00
2022-08-19T07:51:04.074Z,5.40
2022-08-19T07:53:14.192Z,5.40
2022-08-19T07:55:42.110Z,5.60
2022-08-19T07:57:50.385Z,5.60
2022-08-19T07:59:58.268Z,5.30
2022-08-19T08:02:05.681Z,5.70
2022-08-19T08:04:32.959Z,5.30
2022-08-19T08:06:58.030Z,5.60
2022-08-19T08:09:17.629Z,5.10
2022-08-19T08:11:29.558Z,4.70
2022-08-19T08:13:38.969Z,5.60
2022-08-19T08:15:59.626Z,6.50
2022-08-19T08:18:09.636Z,5.20
2022-08-19T08:20:17.081Z,5.40
2022-08-19T08:22:43.889Z,5.20
2022-08-19T08:24:53.826Z,5.10
2022-08-19T08:27:02.660Z,5.70
2022-08-19T08:29:21.831Z,5.20
2022-08-19T08:31:28.443Z,6.30
2022-08-19T08:33:35.763Z,4.90
2022-08-19T08:35:44.331Z,4.60
2022-08-19T08:38:00.426Z,5.40
2022-08-19T08:40:34.567Z,5.10
2022-08-19T08:42:52.323Z,5.20
2022-08-19T08:45:42.410Z,5.00
2022-08-19T08:47:55.167Z,5.00
2022-08-19T08:50:18.419Z,5.50
2022-08-19T08:52:54.585Z,5.10
2022-08-19T08:55:23.248Z,5.40
2022-08-19T08:57:44.762Z,5.10
2022-08-19T09:00:05.387Z,6.00
2022-08-19T09:02:31.784Z,5.10
2022-08-19T09:04:57.008Z,5.00
2022-08-19T09:07:36.025Z,5.30
2022-08-19T09:09:54.457Z,4.70
2022-08-19T09:12:14.443Z,5.00
2022-08-19T09:15:22.649Z,4.90
2022-08-19T09:17:53.483Z,6.70
2022-08-19T09:20:16.801Z,4.60
2022-08-19T09:22:27.215Z,5.20
2022-08-19T09:24:34.284Z,5.10
2022-08-19T09:26:48.523Z,5.30
2022-08-19T09:29:03.826Z,5.20
2022-08-19T09:31:25.501Z,5.30
2022-08-19T09:33:33.205Z,4.60
2022-08-19T09:35:49.820Z,5.40
2022-08-19T09:38:01.617Z,5.30
2022-08-19T09:40:45.764Z,5.60
2022-08-19T09:43:13.626Z,5.40
2022-08-19T09:45:23.889Z,5.70
2022-08-19T09:47:30.979Z,5.20
2022-08-19T09:49:49.617Z,5.30
2022-08-19T09:52:11.756Z,5.30
2022-08-19T09:54:30.896Z,5.40
2022-08-19T09:56:45.051Z,4.50
2022-08-19T09:59:06.058Z,4.80
2022-08-19T10:01:29.138Z,4.50
2022-08-19T10:03:58.915Z,4.90
2022-08-19T10:06:14.945Z,5.10
2022-08-19T10:08:31.079Z,4.80
2022-08-19T10:10:49.627Z,5.60
2022-08-19T10:13:00.719Z,5.30
2022-08-19T10:15:34.429Z,5.20
2022-08-19T10:18:10.383Z,4.50
2022-08-19T10:20:24.714Z,4.30
2022-08-19T10:22:46.142Z,4.40
2022-08-19T10:24:58.562Z,3.60
2022-08-19T10:27:08.915Z,3.80
2022-08-19T10:29:46.449Z,4.00
2022-08-19T10:32:02.841Z,3.20
2022-08-19T10:34:52.025Z,3.70
2022-08-19T10:37:11.513Z,3.10
2022-08-19T10:39:24.731Z,3.10
2022-08-19T10:41:59.421Z,3.40
2022-08-19T10:44:18.037Z,3.00
2022-08-19T10:46:30.122Z,2.80
2022-08-19T10:48:43.474Z,3.00
2022-08-19T10:51:08.975Z,2.90
2022-08-19T10:53:36.339Z,3.20
2022-08-19T10:56:01.949Z,3.20
2022-08-19T10:58:19.707Z,2.90
2022-08-19T11:00:30.032Z,2.70
2022-08-19T11:02:37.619Z,2.60
2022-08-19T11:05:12.713Z,2.60
2022-08-19T11:07:23.797Z,2.40
2022-08-19T11:09:45.858Z,2.50
2022-08-19T11:11:55.059Z,2.00
2022-08-19T11:14:02.344Z,2.40
2022-08-19T11:16:23.712Z,2.10
2022-08-19T11:18:30.735Z,2.40
2022-08-19T11:21:30.857Z,2.30
2022-08-19T11:23:43.503Z,2.20
2022-08-19T11:26:16.152Z,2.40
2022-08-19T11:30:45.878Z,2.20
2022-08-19T11:33:17.327Z,2.20
2022-08-19T11:35:27.891Z,1.60
2022-08-19T11:37:53.507Z,1.60
2022-08-19T11:40:03.494Z,1.80
2022-08-19T11:42:39.100Z,1.90
2022-08-19T11:44:46.078Z,2.10
2022-08-19T11:47:24.178Z,1.80
2022-08-19T11:49:41.291Z,1.60
2022-08-19T11:51:53.746Z,1.60
2022-08-19T11:54:15.035Z,1.90
2022-08-19T11:56:29.491Z,1.60
2022-08-19T11:58:37.364Z,1.50
2022-08-19T12:01:14.476Z,1.30
2022-08-19T12:03:36.107Z,1.40
2022-08-19T12:08:07.415Z,1.20
2022-08-19T12:10:35.312Z,1.20
2022-08-19T12:12:44.604Z,1.40
2022-08-19T12:14:58.629Z,1.20
2022-08-19T12:17:15.432Z,1.30
2022-08-19T12:19:26.775Z,1.30
2022-08-19T12:21:57.692Z,1.40
2022-08-19T12:24:26.553Z,1.10
2022-08-19T12:27:05.621Z,1.10
2022-08-19T12:29:31.441Z,1.20
2022-08-19T12:31:52.463Z,1.00
2022-08-19T12:34:06.149Z,1.30
2022-08-19T12:36:31.578Z,1.30
2022-08-19T12:38:42.973Z,0.90
2022-08-19T12:40:58.342Z,1.20
2022-08-19T12:43:13.834Z,0.90
2022-08-19T12:45:24.814Z,1.30
2022-08-19T12:47:49.752Z,1.20
2022-08-19T12:49:57.219Z,1.20
2022-08-19T12:52:21.463Z,1.00
2022-08-19T12:54:36.027Z,0.80
2022-08-19T12:56:45.948Z,1.10
2022-08-19T12:58:53.215Z,0.90
2022-08-19T13:01:22.545Z,1.20
2022-08-19T13:03:34.773Z,0.90
2022-08-19T13:06:07.863Z,1.00
2022-08-19T13:08:14.916Z,1.10
2022-08-19T13:10:35.129Z,1.00
2022-08-19T13:12:51.111Z,0.80
2022-08-19T13:15:10.938Z,1.10
2022-08-19T13:17:18.036Z,1.00
2022-08-19T13:19:55.146Z,0.90
2022-08-19T13:22:13.173Z,0.80
2022-08-19T13:24:46.833Z,0.80
2022-08-19T13:27:01.550Z,1.00
2022-08-19T13:29:46.484Z,1.10
2022-08-19T13:32:18.578Z,1.10
2022-08-19T13:34:39.073Z,1.40
2022-08-19T13:36:56.715Z,0.80
2022-08-19T13:39:03.482Z,0.90
2022-08-19T13:41:30.928Z,1.00
2022-08-19T13:43:44.256Z,0.90
2022-08-19T13:46:37.993Z,0.90
2022-08-19T13:48:57.815Z,0.80
2022-08-19T13:51:08.418Z,0.90
2022-08-19T13:53:23.685Z,0.80
2022-08-19T13:55:30.533Z,0.60
2022-08-19T13:57:55.184Z,0.80
2022-08-19T14:00:08.648Z,0.80
2022-08-19T14:02:48.514Z,0.60
2022-08-19T14:04:58.412Z,0.60
2022-08-19T14:07:26.703Z,0.70
2022-08-19T14:09:47.630Z,0.90
2022-08-19T14:11:56.161Z,0.70
2022-08-19T14:14:16.547Z,0.80
2022-08-19T14:17:01.916Z,0.70
2022-08-19T14:19:19.215Z,0.80
2022-08-19T14:21:39.728Z,0.70
2022-08-19T14:24:00.817Z,0.90
2022-08-19T14:26:41.071Z,0.80
2022-08-19T14:29:00.014Z,0.90
2022-08-19T14:31:45.520Z,1.40
2022-08-19T14:34:27.727Z,0.60
2022-08-19T14:36:57.220Z,1.20
2022-08-19T14:39:08.172Z,0.90
2022-08-19T14:41:25.847Z,0.90
2022-08-19T14:43:35.770Z,0.80
2022-08-19T14:45:53.266Z,0.70
2022-08-19T14:48:03.308Z,1.00
2022-08-19T14:50:54.424Z,0.80
2022-08-19T14:53:12.718Z,0.80
2022-08-19T14:55:38.926Z,0.80
2022-08-19T14:58:29.334Z,0.90
2022-08-19T15:01:08.030Z,0.80
2022-08-19T15:03:34.074Z,0.80
2022-08-19T15:06:02.681Z,0.70
2022-08-19T15:08:09.506Z,0.70
2022-08-19T15:10:21.146Z,0.80
2022-08-19T15:12:28.159Z,0.80
2022-08-19T15:14:46.928Z,0.80
2022-08-19T15:16:58.115Z,0.80
2022-08-19T15:19:08.069Z,0.80
2022-08-19T15:21:38.618Z,0.80
2022-08-19T15:23:55.070Z,0.70
2022-08-19T15:26:01.820Z,0.80
2022-08-19T15:28:25.629Z,0.70
2022-08-19T15:31:28.515Z,0.60
2022-08-19T15:33:39.177Z,0.60
2022-08-19T15:36:17.308Z,0.70
2022-08-19T15:38:42.154Z,0.60
2022-08-19T15:40:53.079Z,0.60
2022-08-19T15:42:59.933Z,0.40
2022-08-19T15:45:08.720Z,0.50
2022-08-19T15:47:21.426Z,0.60
2022-08-19T15:49:28.310Z,0.50
2022-08-19T15:51:58.796Z,0.50
2022-08-19T15:54:10.473Z,0.60
2022-08-19T15:56:22.688Z,0.50
2022-08-19T15:58:54.298Z,0.60
2022-08-19T16:01:54.207Z,0.60
2022-08-19T16:04:33.349Z,0.90
2022-08-19T16:06:54.480Z,0.80
2022-08-19T16:09:26.970Z,0.70
2022-08-19T16:11:59.637Z,0.80
2022-08-19T16:14:21.549Z,0.50
2022-08-19T16:16:48.021Z,0.60
2022-08-19T16:19:00.070Z,0.40
2022-08-19T16:21:12.036Z,0.50
2022-08-19T16:23:19.224Z,0.50
2022-08-19T16:25:28.721Z,0.60
2022-08-19T16:28:06.523Z,0.40
2022-08-19T16:30:17.982Z,0.50
2022-08-19T16:32:33.822Z,0.50
2022-08-19T16:35:06.728Z,0.60
2022-08-19T16:37:44.642Z,0.60
2022-08-19T16:40:00.764Z,0.40
2022-08-19T16:42:11.709Z,0.70
2022-08-19T16:44:18.920Z,1.40
2022-08-19T16:46:28.766Z,0.60
2022-08-19T16:48:35.238Z,0.70
2022-08-19T16:50:49.626Z,0.70
2022-08-19T16:53:00.278Z,0.40
2022-08-19T16:55:44.506Z,0.50
2022-08-19T16:58:38.073Z,0.50
2022-08-19T17:00:52.010Z,0.50
2022-08-19T17:03:15.078Z,1.00
2022-08-19T17:05:49.690Z,0.60
2022-08-19T17:08:26.863Z,0.70
2022-08-19T17:10:39.579Z,0.50
2022-08-19T17:13:11.309Z,0.50
2022-08-19T17:15:18.165Z,0.60
2022-08-19T17:17:39.790Z,0.60
2022-08-19T17:20:28.944Z,0.60
2022-08-19T17:22:55.624Z,0.40
2022-08-19T17:25:07.175Z,0.40
2022-08-19T17:27:49.984Z,0.50
2022-08-19T17:30:08.858Z,0.60
2022-08-19T17:32:24.802Z,0.60
2022-08-19T17:34:31.926Z,0.60
2022-08-19T17:37:33.088Z,1.20
2022-08-19T17:40:33.542Z,0.50
2022-08-19T17:43:15.188Z,0.70
2022-08-19T17:45:43.257Z,0.60
2022-08-19T17:48:02.323Z,0.50
2022-08-19T17:50:36.545Z,0.50
2022-08-19T17:52:59.253Z,0.60
2022-08-19T17:55:12.900Z,0.60
2022-08-19T17:57:55.116Z,0.50
2022-08-19T18:00:27.343Z,0.40
2022-08-19T18:03:07.284Z,0.40
2022-08-19T18:05:16.780Z,0.40
2022-08-19T18:07:31.473Z,0.60
2022-08-19T18:11:59.241Z,0.60
2022-08-19T18:14:32.048Z,1.10
2022-08-19T18:17:07.001Z,0.50
2022-08-19T18:19:41.667Z,0.60
2022-08-19T18:21:58.581Z,0.40
2022-08-19T18:24:23.076Z,0.50
2022-08-19T18:26:56.043Z,0.60
2022-08-19T18:29:26.976Z,0.50
2022-08-19T18:32:07.890Z,0.50
2022-08-19T18:35:09.825Z,0.50
2022-08-19T18:37:20.551Z,0.70
2022-08-19T18:39:52.329Z,0.60
2022-08-19T18:42:17.175Z,0.50
2022-08-19T18:44:42.838Z,0.50
2022-08-19T18:47:14.577Z,0.50
2022-08-19T18:52:03.791Z,0.70
2022-08-19T18:54:21.080Z,0.50
2022-08-19T18:56:38.533Z,0.50
2022-08-19T18:58:52.334Z,0.50
2022-08-19T19:01:11.998Z,0.60
2022-08-19T19:03:23.011Z,1.10
2022-08-19T19:05:35.901Z,0.50
2022-08-19T19:07:56.213Z,0.50
2022-08-19T19:10:28.794Z,0.50
2022-08-19T19:12:43.276Z,0.60
2022-08-19T19:14:51.005Z,0.60
2022-08-19T19:17:07.995Z,1.30
2022-08-19T19:19:29.890Z,0.60
2022-08-19T19:21:54.234Z,0.90
2022-08-19T19:24:03.956Z,0.80
2022-08-19T19:26:12.828Z,0.70
2022-08-19T19:28:30.439Z,0.80
2022-08-19T19:31:04.327Z,0.80
2022-08-19T19:33:31.457Z,0.90
2022-08-19T19:36:04.782Z,0.90
2022-08-19T19:38:25.232Z,0.90
2022-08-19T19:40:41.088Z,0.90
2022-08-19T19:43:00.871Z,0.80
2022-08-19T19:45:08.562Z,1.00
2022-08-19T19:47:39.391Z,1.30
2022-08-19T19:50:14.757Z,1.30
2022-08-19T19:52:22.977Z,1.90
2022-08-19T19:54:29.844Z,1.50
2022-08-19T19:56:37.311Z,1.60
2022-08-19T19:58:51.449Z,2.40
2022-08-19T20:01:13.598Z,2.50
2022-08-19T20:03:49.820Z,2.20
2022-08-19T20:08:47.932Z,2.10
2022-08-19T20:11:18.505Z,2.30
2022-08-19T20:13:25.833Z,2.30
2022-08-19T20:15:41.719Z,3.00
2022-08-19T20:18:11.981Z,2.30
2022-08-19T20:20:21.944Z,2.50
2022-08-19T20:22:33.865Z,2.70
2022-08-19T20:24:46.966Z,3.40
2022-08-19T20:26:56.671Z,3.30
2022-08-19T20:29:11.263Z,2.40
2022-08-19T20:31:40.452Z,2.60
2022-08-19T20:34:08.447Z,2.30
2022-08-19T20:36:18.447Z,2.50
2022-08-19T20:38:31.348Z,2.10
2022-08-19T20:40:38.928Z,2.20
2022-08-19T20:42:55.349Z,1.70
2022-08-19T20:45:07.137Z,1.70
2022-08-19T20:49:39.585Z,2.10
2022-08-19T20:51:49.901Z,2.30
2022-08-19T20:54:00.139Z,2.10
2022-08-19T20:56:28.500Z,2.00
2022-08-19T20:58:42.567Z,2.60
2022-08-19T21:01:11.664Z,2.20
2022-08-19T21:03:23.435Z,2.30
2022-08-19T21:05:30.696Z,2.00
2022-08-19T21:08:10.735Z,2.60
2022-08-19T21:10:20.500Z,2.00
2022-08-19T21:12:27.859Z,2.40
2022-08-19T21:15:08.351Z,2.40
2022-08-19T21:17:41.287Z,1.80
2022-08-19T21:19:48.815Z,2.20
2022-08-19T21:21:59.491Z,2.40
2022-08-19T21:24:18.877Z,2.30
2022-08-19T21:26:51.341Z,1.70
2022-08-19T21:28:58.259Z,2.50
2022-08-19T21:31:06.535Z,2.00
2022-08-19T21:33:16.609Z,2.60
2022-08-19T21:35:25.363Z,2.20
2022-08-19T21:38:11.585Z,3.00
2022-08-19T21:40:25.326Z,2.60
2022-08-19T21:42:31.748Z,3.10
2022-08-19T21:44:41.431Z,2.90
2022-08-19T21:47:07.592Z,3.00
2022-08-19T21:49:20.951Z,3.10
2022-08-19T21:51:42.097Z,2.80
2022-08-19T21:53:55.399Z,2.90
2022-08-19T21:56:02.320Z,3.20
2022-08-19T21:58:09.179Z,3.40
2022-08-19T22:00:22.724Z,3.70
2022-08-19T22:02:29.907Z,2.80
2022-08-19T22:04:36.461Z,3.10
2022-08-19T22:06:43.633Z,3.70
2022-08-19T22:08:58.138Z,3.40
2022-08-19T22:11:08.226Z,3.90
2022-08-19T22:13:24.695Z,4.00
2022-08-19T22:15:57.036Z,3.30
2022-08-19T22:18:07.433Z,3.80
2022-08-19T22:20:43.402Z,3.80
2022-08-19T22:22:58.365Z,3.90
2022-08-19T22:25:24.422Z,3.80
2022-08-19T22:27:41.343Z,3.60
2022-08-19T22:30:01.315Z,4.90
2022-08-19T22:32:27.095Z,4.50
2022-08-19T22:34:47.176Z,4.10
2022-08-19T22:37:07.626Z,4.70
2022-08-19T22:39:41.638Z,4.30
2022-08-19T22:41:55.560Z,4.40
2022-08-19T22:44:05.540Z,4.50
2022-08-19T22:46:40.334Z,4.20
2022-08-19T22:49:00.743Z,4.30
2022-08-19T22:51:29.936Z,4.80
2022-08-19T22:53:40.137Z,3.90
2022-08-19T22:55:57.147Z,4.60
2022-08-19T22:58:07.228Z,4.10
2022-08-19T23:00:15.731Z,4.30
2022-08-19T23:02:27.317Z,5.10
2022-08-19T23:04:58.388Z,4.10
2022-08-19T23:07:09.434Z,3.80
2022-08-19T23:09:30.516Z,4.50
2022-08-19T23:11:42.036Z,4.10
2022-08-19T23:13:49.105Z,3.80
2022-08-19T23:16:00.618Z,4.40
2022-08-19T23:18:11.255Z,3.80
2022-08-19T23:20:18.527Z,4.70
2022-08-19T23:22:31.653Z,3.90
2022-08-19T23:25:10.964Z,4.40
2022-08-19T23:27:36.576Z,4.50
2022-08-19T23:30:01.713Z,4.10
2022-08-19T23:32:11.653Z,4.40
2022-08-19T23:34:23.138Z,4.40
2022-08-19T23:36:36.966Z,4.30
2022-08-19T23:38:49.158Z,3.70
2022-08-19T23:41:07.814Z,4.10
2022-08-19T23:43:20.890Z,4.30
2022-08-19T23:45:51.189Z,4.30
2022-08-19T23:47:58.446Z,5.10
2022-08-19T23:50:07.784Z,4.10
2022-08-19T23:52:29.594Z,4.10
2022-08-19T23:54:48.664Z,4.20
2022-08-19T23:57:30.639Z,3.50
2022-08-19T23:59:43.485Z,3.70
